Dublin, Ireland
Current Conditions -  °F | °C
As of 12:30 PM on Thursday 29 Jan 2015 (Local Time) from EIDW Reporting Station
Scattered Clouds Scattered Clouds  
Wind Chill: 21°   Ceiling: Unl
Heat Index: 34°   Visibility: 6mi
Dew Point: 30°   Wind: 25mph
Humidity: 87%   Direction: 270°W
Pressure: 28.97"   Gusts: NA
Location:  53.33°N, 6.25°W
Report Text: EIDW 291230Z 27022KT 9999 FEW011 SCT017 01/M01 Q0981 NOSIG
Loading
Personal Weather Stations






























Interactive Weather Map New forecast layout! Learn more

10-Day Weather Forecast

Advertisements
Track Severe Weather on mobile